Time;durP1;ratioP1;P1;durP2;ratioP2;P2;SDS_P1;SDS_P2;PMS_P1;PMS_P2;Temp;Humidity;BMP_temperature;BMP_pressure;BME280_temperature;BME280_humidity;BME280_pressure;Samples;Min_cycle;Max_cycle;Signal;HPM_P1;HPM_P2
2021/01/23 00:05:42;;;;;;;31.23;21.70;;;;;;;2.89;84.55;97777.17;493844;1129;114316;-66
2021/01/23 00:15:46;;;;;;;41.20;26.35;;;;;;;2.73;84.34;97772.09;493262;1129;114310;-64
2021/01/23 00:25:50;;;;;;;44.73;26.00;;;;;;;2.55;84.52;97785.26;493099;1128;114075;-68
2021/01/23 00:35:54;;;;;;;33.95;25.00;;;;;;;2.45;84.83;97784.95;492596;1129;114958;-63
2021/01/23 00:45:58;;;;;;;35.97;23.40;;;;;;;2.34;84.43;97789.94;492930;1128;114165;-65
2021/01/23 00:56:03;;;;;;;38.30;25.75;;;;;;;2.22;84.76;97800.10;493428;1128;115432;-58
2021/01/23 01:06:07;;;;;;;59.23;41.37;;;;;;;2.03;84.42;97791.77;493442;1129;114573;-60
2021/01/23 01:16:12;;;;;;;49.43;32.33;;;;;;;1.90;84.85;97802.80;493243;1129;114228;-61
2021/01/23 01:26:17;;;;;;;41.63;29.97;;;;;;;1.80;84.76;97804.27;492618;1129;114187;-61
2021/01/23 01:36:21;;;;;;;40.10;30.47;;;;;;;1.67;84.96;97807.55;492101;1129;114193;-61
2021/01/23 01:46:26;;;;;;;47.43;30.97;;;;;;;1.53;85.21;97823.84;491662;1128;114217;-62
2021/01/23 01:56:30;;;;;;;50.27;32.43;;;;;;;1.46;85.21;97819.09;492166;1129;114377;-60
2021/01/23 02:06:58;;;;;;;46.97;30.97;;;;;;;1.33;85.10;97814.60;492920;1129;114547;-61
2021/01/23 02:17:09;;;;;;;40.17;27.63;;;;;;;1.36;85.78;97814.42;492566;1128;114735;-60
2021/01/23 02:27:41;;;;;;;42.27;28.37;;;;;;;1.31;85.68;97820.77;492333;1129;115228;-63
2021/01/23 02:37:46;;;;;;;39.07;26.13;;;;;;;1.27;85.71;97825.27;492769;1128;115065;-62
2021/01/23 02:47:50;;;;;;;38.00;24.10;;;;;;;1.32;86.34;97823.25;493081;1128;114223;-63
2021/01/23 02:57:58;;;;;;;37.60;25.37;;;;;;;1.58;86.69;97818.41;492398;1128;114687;-61
2021/01/23 03:08:02;;;;;;;32.85;21.62;;;;;;;1.75;86.53;97807.12;492738;1129;114217;-62
2021/01/23 03:18:06;;;;;;;28.50;21.30;;;;;;;1.96;86.44;97792.11;492482;1128;114266;-61
2021/01/23 03:28:11;;;;;;;36.80;22.83;;;;;;;2.13;85.83;97766.16;492220;1128;114170;-60
2021/01/23 03:38:15;;;;;;;34.07;20.20;;;;;;;2.24;85.74;97736.09;492842;1128;114184;-60
2021/01/23 03:48:19;;;;;;;29.73;18.93;;;;;;;2.26;85.56;97723.06;492543;1129;114693;-62
2021/01/23 03:58:23;;;;;;;27.83;21.00;;;;;;;2.41;85.41;97718.72;493001;1128;114171;-62
2021/01/23 04:08:27;;;;;;;32.20;20.40;;;;;;;2.50;85.14;97678.46;493169;1128;114486;-61
2021/01/23 04:18:30;;;;;;;26.20;18.73;;;;;;;2.55;85.05;97686.80;492644;1128;114250;-61
2021/01/23 04:28:34;;;;;;;24.57;18.40;;;;;;;2.53;84.80;97691.22;492207;1129;114184;-61
2021/01/23 04:38:38;;;;;;;24.73;17.17;;;;;;;2.51;84.55;97661.98;492579;1128;114890;-62
2021/01/23 04:48:42;;;;;;;25.37;17.93;;;;;;;2.51;85.07;97659.39;492398;1129;114703;-62
2021/01/23 04:58:47;;;;;;;30.83;18.53;;;;;;;2.52;85.16;97661.05;492840;1129;114767;-61
2021/01/23 05:08:50;;;;;;;26.25;16.80;;;;;;;2.50;85.00;97635.27;492490;1129;114345;-61
2021/01/23 05:19:01;;;;;;;29.93;18.30;;;;;;;2.52;85.32;97632.55;493158;1130;114478;-63
2021/01/23 05:29:14;;;;;;;32.00;18.67;;;;;;;2.57;85.81;97617.56;492791;1129;114876;-62
2021/01/23 05:39:18;;;;;;;29.00;19.73;;;;;;;2.65;85.68;97604.12;492945;1128;114591;-63
2021/01/23 05:49:22;;;;;;;26.83;17.40;;;;;;;2.76;85.69;97598.23;493061;1128;114144;-62
2021/01/23 05:59:26;;;;;;;26.93;16.33;;;;;;;2.87;85.74;97600.16;493291;1128;115808;-62
2021/01/23 06:09:38;;;;;;;21.25;17.00;;;;;;;2.92;85.87;97595.49;493242;1130;114555;-60
2021/01/23 06:19:43;;;;;;;21.70;16.95;;;;;;;2.96;85.35;97567.61;492211;1128;114356;-62
2021/01/23 06:29:48;;;;;;;21.67;16.33;;;;;;;2.99;85.30;97575.19;492216;1129;114480;-61
2021/01/23 06:40:13;;;;;;;24.63;17.70;;;;;;;3.02;86.13;97572.41;492730;1129;114465;-63
2021/01/23 06:50:33;;;;;;;22.57;16.67;;;;;;;3.07;85.33;97559.96;493153;1129;114587;-62
2021/01/23 07:00:37;;;;;;;28.87;17.00;;;;;;;3.10;85.47;97554.56;492803;1129;114141;-62
2021/01/23 07:10:41;;;;;;;31.25;20.50;;;;;;;3.17;85.61;97558.42;484315;1128;10001884;-61
2021/01/23 07:20:45;;;;;;;26.85;16.40;;;;;;;3.19;85.79;97542.77;492682;1129;115311;-62
2021/01/23 07:30:49;;;;;;;22.43;17.87;;;;;;;3.24;85.85;97519.13;492254;1127;114817;-62
2021/01/23 07:40:57;;;;;;;25.73;19.63;;;;;;;3.27;85.84;97519.72;492464;1128;114443;-63
2021/01/23 07:51:01;;;;;;;26.40;19.70;;;;;;;3.33;85.97;97508.10;493514;1128;114452;-68
2021/01/23 08:01:17;;;;;;;27.03;17.33;;;;;;;3.44;85.86;97491.82;492554;1129;114022;-69
2021/01/23 08:11:41;;;;;;;28.25;19.30;;;;;;;3.52;86.37;97489.53;498298;1128;114157;-68
2021/01/23 08:22:05;;;;;;;29.17;18.10;;;;;;;3.63;85.94;97481.00;510371;1136;114445;-69
2021/01/23 08:32:08;;;;;;;23.27;18.53;;;;;;;3.75;86.11;97482.73;508448;1129;114024;-69
2021/01/23 08:42:13;;;;;;;26.30;18.30;;;;;;;3.81;85.65;97491.02;492839;1128;115026;-64
2021/01/23 08:52:17;;;;;;;29.20;20.20;;;;;;;3.85;86.14;97488.09;492473;1129;114168;-66
2021/01/23 09:02:21;;;;;;;27.13;19.80;;;;;;;3.89;86.42;97483.52;492146;1128;114152;-67
2021/01/23 09:12:25;;;;;;;24.60;18.83;;;;;;;3.96;86.17;97479.56;492476;1129;114882;-64
2021/01/23 09:22:29;;;;;;;26.70;18.97;;;;;;;4.03;86.27;97482.55;492708;1129;114163;-68
2021/01/23 09:32:33;;;;;;;27.63;17.70;;;;;;;4.04;86.16;97461.68;492388;1129;114040;-68
2021/01/23 09:42:37;;;;;;;31.73;20.20;;;;;;;4.10;86.52;97457.81;492877;1128;114144;-67
2021/01/23 09:52:41;;;;;;;20.23;16.32;;;;;;;4.22;87.04;97442.28;492758;1129;114114;-68
2021/01/23 10:02:46;;;;;;;23.73;16.83;;;;;;;4.27;86.29;97429.78;492587;1128;114047;-67
2021/01/23 10:12:51;;;;;;;22.57;16.97;;;;;;;4.33;86.69;97416.35;492181;1127;114779;-67
2021/01/23 10:22:55;;;;;;;25.43;18.10;;;;;;;4.40;87.00;97406.33;491877;1129;114412;-68
2021/01/23 10:32:59;;;;;;;21.35;15.60;;;;;;;4.48;87.07;97391.82;493144;1129;114631;-67
2021/01/23 10:43:03;;;;;;;21.10;15.90;;;;;;;4.56;86.38;97378.25;493255;1129;114152;-65
2021/01/23 10:53:07;;;;;;;18.60;13.67;;;;;;;4.68;86.44;97367.88;493624;1129;114875;-67
2021/01/23 11:03:11;;;;;;;21.00;15.67;;;;;;;4.74;86.46;97370.83;484614;1128;10001339;-64
2021/01/23 11:13:15;;;;;;;22.97;15.47;;;;;;;4.76;86.89;97363.73;492236;1128;114455;-66
2021/01/23 11:23:21;;;;;;;18.93;14.97;;;;;;;4.87;86.55;97362.09;491930;1128;114166;-64
2021/01/23 11:33:25;;;;;;;21.27;15.87;;;;;;;4.92;86.43;97357.39;492085;1128;114598;-62
2021/01/23 11:43:29;;;;;;;20.90;15.33;;;;;;;5.02;86.44;97341.89;491250;1127;114769;-63
2021/01/23 11:53:33;;;;;;;22.57;16.53;;;;;;;5.31;85.69;97331.00;491627;1128;114210;-77
2021/01/23 12:03:37;;;;;;;19.53;13.63;;;;;;;5.56;85.16;97310.83;495734;1128;114104;-78
2021/01/23 12:13:41;;;;;;;22.00;13.40;;;;;;;5.81;85.00;97288.00;494315;1128;114582;-81
2021/01/23 12:23:45;;;;;;;17.40;13.60;;;;;;;5.97;84.53;97279.77;496242;1128;114864;-80
2021/01/23 12:33:49;;;;;;;15.55;12.20;;;;;;;6.08;83.74;97266.71;496424;1128;114717;-67
2021/01/23 12:43:53;;;;;;;20.05;13.90;;;;;;;6.19;83.72;97252.78;492604;1129;114476;-69
2021/01/23 12:53:57;;;;;;;19.00;13.70;;;;;;;6.23;83.37;97259.38;492595;1128;113992;-65
2021/01/23 13:04:01;;;;;;;15.93;13.13;;;;;;;6.28;82.99;97254.61;492867;1128;114004;-66
2021/01/23 13:14:05;;;;;;;18.95;14.20;;;;;;;6.34;82.90;97249.83;493107;1130;114163;-63
2021/01/23 13:24:09;;;;;;;16.07;13.37;;;;;;;6.40;82.73;97257.15;492718;1128;115047;-62
2021/01/23 13:34:13;;;;;;;16.60;12.15;;;;;;;6.44;82.06;97259.37;492796;1131;114858;-63
2021/01/23 13:44:17;;;;;;;20.97;13.40;;;;;;;6.52;81.78;97263.09;492426;1128;114920;-67
2021/01/23 13:54:21;;;;;;;14.63;10.57;;;;;;;6.58;81.56;97280.83;492459;1129;114411;-65
2021/01/23 14:04:25;;;;;;;15.57;10.57;;;;;;;6.63;81.36;97242.14;492192;1128;114627;-63
2021/01/23 14:14:29;;;;;;;15.90;10.63;;;;;;;6.70;81.02;97227.63;492227;1128;115859;-63
2021/01/23 14:24:33;;;;;;;11.65;9.75;;;;;;;6.67;80.70;97237.49;492528;1128;114960;-64
2021/01/23 14:34:37;;;;;;;15.10;12.47;;;;;;;6.58;80.57;97231.30;492489;1127;114921;-68
2021/01/23 14:44:41;;;;;;;21.00;13.93;;;;;;;6.41;80.29;97262.24;492234;1131;114714;-63
2021/01/23 14:54:45;;;;;;;24.07;14.80;;;;;;;6.19;80.42;97246.75;492357;1129;115040;-64
2021/01/23 15:04:49;;;;;;;17.30;11.30;;;;;;;6.02;80.81;97257.63;492888;1129;114964;-65
2021/01/23 15:14:53;;;;;;;16.73;12.90;;;;;;;6.04;81.14;97267.90;492731;1129;114576;-62
2021/01/23 15:24:57;;;;;;;19.30;11.30;;;;;;;6.12;81.00;97301.97;491717;1128;114753;-62
2021/01/23 15:35:00;;;;;;;17.03;10.63;;;;;;;6.24;80.91;97310.56;491924;1128;114304;-68
2021/01/23 15:45:08;;;;;;;16.07;9.90;;;;;;;6.37;80.60;97322.58;491904;1128;114181;-70
2021/01/23 15:55:13;;;;;;;18.13;10.93;;;;;;;6.37;80.42;97322.58;492996;1129;114813;-73
2021/01/23 16:05:17;;;;;;;20.83;9.80;;;;;;;6.39;80.49;97342.33;484593;1128;10001142;-68
2021/01/23 16:15:22;;;;;;;11.60;7.77;;;;;;;6.60;80.18;97364.97;492365;1129;114986;-64
2021/01/23 16:25:28;;;;;;;23.43;10.93;;;;;;;6.79;79.57;97377.28;493472;1128;115113;-61
2021/01/23 16:35:31;;;;;;;9.93;6.60;;;;;;;6.93;78.67;97370.91;492027;1131;114763;-62
2021/01/23 16:45:36;;;;;;;13.57;7.60;;;;;;;6.84;78.17;97375.13;491640;1129;114643;-65
2021/01/23 16:55:39;;;;;;;11.57;7.10;;;;;;;6.64;77.91;97374.20;492116;1128;115801;-63
2021/01/23 17:05:43;;;;;;;14.30;8.83;;;;;;;6.42;77.56;97396.00;492402;1128;114298;-64
2021/01/23 17:15:49;;;;;;;16.43;7.93;;;;;;;6.11;77.08;97407.16;492523;1129;114729;-67
2021/01/23 17:25:52;;;;;;;33.80;15.05;;;;;;;5.94;77.28;97408.47;493007;1129;114211;-65
2021/01/23 17:35:56;;;;;;;15.87;8.20;;;;;;;5.81;76.79;97444.27;492362;1129;115221;-69
2021/01/23 17:46:00;;;;;;;17.53;9.53;;;;;;;5.68;75.96;97442.63;492524;1128;114257;-68
2021/01/23 17:56:05;;;;;;;59.57;24.33;;;;;;;5.60;76.24;97473.64;492700;1129;114483;-68
2021/01/23 18:06:10;;;;;;;17.20;8.80;;;;;;;5.47;76.11;97463.33;495795;1128;114227;-64
2021/01/23 18:16:14;;;;;;;35.67;13.77;;;;;;;5.42;75.89;97475.89;501454;1128;114605;-63
2021/01/23 18:26:18;;;;;;;37.50;16.50;;;;;;;5.33;75.66;97490.44;492368;1129;114103;-65
2021/01/23 18:36:22;;;;;;;12.53;6.93;;;;;;;5.16;75.93;97484.73;492963;1129;114278;-64
2021/01/23 18:46:26;;;;;;;19.87;8.37;;;;;;;4.83;75.88;97504.52;493148;1128;114464;-64
2021/01/23 18:56:30;;;;;;;6.47;4.43;;;;;;;4.37;75.45;97511.31;492650;1128;113976;-64
2021/01/23 19:06:35;;;;;;;29.67;10.97;;;;;;;4.11;75.32;97532.20;492932;1128;114199;-66
2021/01/23 19:16:45;;;;;;;5.40;3.97;;;;;;;3.92;75.41;97543.02;492618;1129;114774;-65
2021/01/23 19:26:49;;;;;;;9.20;4.90;;;;;;;3.77;76.22;97547.53;484411;1128;10004007;-62
2021/01/23 19:36:53;;;;;;;7.47;5.20;;;;;;;3.42;76.15;97550.77;492047;1128;114554;-63
2021/01/23 19:47:00;;;;;;;5.83;4.60;;;;;;;3.24;76.24;97547.66;492434;1128;113800;-62
2021/01/23 19:57:04;;;;;;;6.30;4.60;;;;;;;3.04;75.87;97545.42;492409;1128;114707;-60
2021/01/23 20:07:08;;;;;;;6.00;4.90;;;;;;;2.75;76.38;97549.93;492729;1128;113777;-63
2021/01/23 20:17:12;;;;;;;6.53;4.23;;;;;;;2.44;76.25;97588.19;492423;1128;114103;-62
2021/01/23 20:27:17;;;;;;;5.73;3.60;;;;;;;2.13;76.03;97580.54;492161;1129;113781;-61
2021/01/23 20:37:21;;;;;;;3.37;3.00;;;;;;;2.00;76.27;97605.52;492290;1129;114722;-61
2021/01/23 20:47:25;;;;;;;3.40;3.10;;;;;;;1.60;75.86;97612.19;492551;1133;114260;-63
2021/01/23 20:57:30;;;;;;;2.27;2.07;;;;;;;1.38;76.16;97605.68;492610;1128;113788;-63
2021/01/23 21:07:33;;;;;;;4.17;2.60;;;;;;;1.30;76.80;97617.41;492325;1127;114464;-63
2021/01/23 21:17:37;;;;;;;3.90;2.70;;;;;;;1.32;76.41;97613.78;492533;1128;113959;-63
2021/01/23 21:27:41;;;;;;;9.77;4.23;;;;;;;1.52;76.53;97614.38;492340;1128;114409;-61
2021/01/23 21:37:46;;;;;;;5.33;2.97;;;;;;;1.44;76.45;97619.16;494414;1129;114542;-63
2021/01/23 21:47:50;;;;;;;5.53;3.33;;;;;;;1.34;77.07;97622.31;492282;1128;114580;-62
2021/01/23 21:57:54;;;;;;;4.53;3.70;;;;;;;1.21;77.35;97613.56;492945;1129;114269;-62
2021/01/23 22:07:58;;;;;;;4.87;3.57;;;;;;;1.23;77.53;97604.81;493427;1128;114482;-62
2021/01/23 22:18:03;;;;;;;3.93;3.10;;;;;;;1.11;77.85;97611.53;492763;1128;113790;-60
2021/01/23 22:28:07;;;;;;;4.73;3.37;;;;;;;1.03;77.99;97612.88;493410;1128;114265;-61
2021/01/23 22:38:10;;;;;;;4.40;4.00;;;;;;;1.05;78.63;97608.47;492455;1128;115406;-61
2021/01/23 22:48:14;;;;;;;4.60;3.40;;;;;;;0.99;78.58;97612.23;492656;1129;114548;-63
2021/01/23 22:58:19;;;;;;;5.77;4.10;;;;;;;1.09;78.95;97607.37;492722;1129;114104;-65
2021/01/23 23:08:25;;;;;;;6.33;5.07;;;;;;;1.01;79.66;97600.05;499162;1128;114076;-66
2021/01/23 23:18:29;;;;;;;7.45;6.75;;;;;;;0.97;79.65;97588.20;494651;1129;114171;-66
2021/01/23 23:28:33;;;;;;;8.87;6.70;;;;;;;0.93;79.49;97595.33;493274;1130;113872;-66
2021/01/23 23:38:37;;;;;;;10.63;7.30;;;;;;;1.01;80.01;97586.28;492811;1128;114411;-65
2021/01/23 23:48:42;;;;;;;8.43;7.20;;;;;;;0.94;80.06;97585.80;492876;1128;114111;-66
2021/01/23 23:58:46;;;;;;;14.03;9.65;;;;;;;0.78;80.07;97588.42;492665;1128;114265;-66
